sensor_id;sensor_type;location;lat;lon;timestamp;P1;durP1;ratioP1;P2;durP2;ratioP2
59854;SDS011;45732;52.850;6.896;2023-11-18T00:00:49;19.95;;;14.57;;
59854;SDS011;45732;52.850;6.896;2023-11-18T00:03:15;24.17;;;14.50;;
59854;SDS011;45732;52.850;6.896;2023-11-18T00:05:41;152.38;;;20.40;;
59854;SDS011;45732;52.850;6.896;2023-11-18T00:08:07;52.60;;;16.45;;
59854;SDS011;45732;52.850;6.896;2023-11-18T00:10:33;115.32;;;19.42;;
59854;SDS011;45732;52.850;6.896;2023-11-18T00:12:59;35.33;;;15.85;;
59854;SDS011;45732;52.850;6.896;2023-11-18T00:15:26;17.30;;;14.70;;
59854;SDS011;45732;52.850;6.896;2023-11-18T00:17:52;18.13;;;14.57;;
59854;SDS011;45732;52.850;6.896;2023-11-18T00:20:18;19.95;;;13.07;;
59854;SDS011;45732;52.850;6.896;2023-11-18T00:22:45;18.45;;;12.63;;
59854;SDS011;45732;52.850;6.896;2023-11-18T00:25:11;18.40;;;12.73;;
59854;SDS011;45732;52.850;6.896;2023-11-18T00:27:39;19.73;;;12.35;;
59854;SDS011;45732;52.850;6.896;2023-11-18T00:30:05;15.25;;;12.38;;
59854;SDS011;45732;52.850;6.896;2023-11-18T00:32:36;14.40;;;12.73;;
59854;SDS011;45732;52.850;6.896;2023-11-18T00:35:02;15.45;;;12.52;;
59854;SDS011;45732;52.850;6.896;2023-11-18T00:37:30;14.98;;;12.63;;
59854;SDS011;45732;52.850;6.896;2023-11-18T00:39:56;15.15;;;12.93;;
59854;SDS011;45732;52.850;6.896;2023-11-18T00:42:22;15.82;;;12.27;;
59854;SDS011;45732;52.850;6.896;2023-11-18T00:44:48;18.05;;;14.75;;
59854;SDS011;45732;52.850;6.896;2023-11-18T00:47:14;21.85;;;15.75;;
59854;SDS011;45732;52.850;6.896;2023-11-18T00:49:39;21.98;;;15.73;;
59854;SDS011;45732;52.850;6.896;2023-11-18T00:52:05;18.40;;;13.80;;
59854;SDS011;45732;52.850;6.896;2023-11-18T00:54:31;15.57;;;12.82;;
59854;SDS011;45732;52.850;6.896;2023-11-18T00:56:57;15.85;;;13.15;;
59854;SDS011;45732;52.850;6.896;2023-11-18T00:59:22;16.38;;;13.15;;
59854;SDS011;45732;52.850;6.896;2023-11-18T01:01:48;19.92;;;13.48;;
59854;SDS011;45732;52.850;6.896;2023-11-18T01:04:14;49.67;;;14.98;;
59854;SDS011;45732;52.850;6.896;2023-11-18T01:06:41;40.42;;;13.90;;
59854;SDS011;45732;52.850;6.896;2023-11-18T01:09:08;29.38;;;13.32;;
59854;SDS011;45732;52.850;6.896;2023-11-18T01:11:34;39.55;;;13.75;;
59854;SDS011;45732;52.850;6.896;2023-11-18T01:14:01;29.65;;;13.35;;
59854;SDS011;45732;52.850;6.896;2023-11-18T01:16:27;29.40;;;13.00;;
59854;SDS011;45732;52.850;6.896;2023-11-18T01:18:53;26.27;;;13.85;;
59854;SDS011;45732;52.850;6.896;2023-11-18T01:21:19;34.40;;;14.30;;
59854;SDS011;45732;52.850;6.896;2023-11-18T01:23:46;16.25;;;13.32;;
59854;SDS011;45732;52.850;6.896;2023-11-18T01:26:14;17.15;;;14.20;;
59854;SDS011;45732;52.850;6.896;2023-11-18T01:28:41;17.15;;;14.48;;
59854;SDS011;45732;52.850;6.896;2023-11-18T01:31:08;17.70;;;13.80;;
59854;SDS011;45732;52.850;6.896;2023-11-18T01:33:38;21.42;;;14.18;;
59854;SDS011;45732;52.850;6.896;2023-11-18T01:36:07;34.10;;;14.88;;
59854;SDS011;45732;52.850;6.896;2023-11-18T01:38:34;19.27;;;14.13;;
59854;SDS011;45732;52.850;6.896;2023-11-18T01:41:00;25.40;;;13.73;;
59854;SDS011;45732;52.850;6.896;2023-11-18T01:43:26;29.30;;;15.88;;
59854;SDS011;45732;52.850;6.896;2023-11-18T01:45:52;18.38;;;13.80;;
59854;SDS011;45732;52.850;6.896;2023-11-18T01:48:18;20.90;;;14.77;;
59854;SDS011;45732;52.850;6.896;2023-11-18T01:50:47;18.10;;;14.25;;
59854;SDS011;45732;52.850;6.896;2023-11-18T01:53:13;20.58;;;14.23;;
59854;SDS011;45732;52.850;6.896;2023-11-18T01:55:40;22.58;;;14.80;;
59854;SDS011;45732;52.850;6.896;2023-11-18T01:58:07;25.10;;;14.52;;
59854;SDS011;45732;52.850;6.896;2023-11-18T02:00:36;43.45;;;17.02;;
59854;SDS011;45732;52.850;6.896;2023-11-18T02:03:05;19.77;;;14.20;;
59854;SDS011;45732;52.850;6.896;2023-11-18T02:05:31;27.02;;;14.45;;
59854;SDS011;45732;52.850;6.896;2023-11-18T02:08:01;30.40;;;16.20;;
59854;SDS011;45732;52.850;6.896;2023-11-18T02:10:30;47.75;;;16.67;;
59854;SDS011;45732;52.850;6.896;2023-11-18T02:13:18;48.30;;;15.38;;
59854;SDS011;45732;52.850;6.896;2023-11-18T02:15:54;26.15;;;18.40;;
59854;SDS011;45732;52.850;6.896;2023-11-18T02:18:24;27.63;;;19.60;;
59854;SDS011;45732;52.850;6.896;2023-11-18T02:20:52;24.65;;;18.60;;
59854;SDS011;45732;52.850;6.896;2023-11-18T02:23:20;22.17;;;16.13;;
59854;SDS011;45732;52.850;6.896;2023-11-18T02:25:47;18.60;;;15.73;;
59854;SDS011;45732;52.850;6.896;2023-11-18T02:28:14;19.17;;;14.05;;
59854;SDS011;45732;52.850;6.896;2023-11-18T02:30:42;21.65;;;14.43;;
59854;SDS011;45732;52.850;6.896;2023-11-18T02:33:21;17.65;;;14.55;;
59854;SDS011;45732;52.850;6.896;2023-11-18T02:35:54;17.25;;;14.65;;
59854;SDS011;45732;52.850;6.896;2023-11-18T02:38:29;16.50;;;14.15;;
59854;SDS011;45732;52.850;6.896;2023-11-18T02:40:58;18.60;;;16.10;;
59854;SDS011;45732;52.850;6.896;2023-11-18T02:43:30;19.52;;;16.35;;
59854;SDS011;45732;52.850;6.896;2023-11-18T02:45:56;21.67;;;17.13;;
59854;SDS011;45732;52.850;6.896;2023-11-18T02:48:22;22.77;;;18.35;;
59854;SDS011;45732;52.850;6.896;2023-11-18T02:50:49;24.23;;;19.58;;
59854;SDS011;45732;52.850;6.896;2023-11-18T02:53:14;25.70;;;18.92;;
59854;SDS011;45732;52.850;6.896;2023-11-18T02:55:40;26.98;;;19.83;;
59854;SDS011;45732;52.850;6.896;2023-11-18T02:58:06;27.60;;;20.92;;
59854;SDS011;45732;52.850;6.896;2023-11-18T03:00:33;27.83;;;20.98;;
59854;SDS011;45732;52.850;6.896;2023-11-18T03:02:59;31.52;;;23.30;;
59854;SDS011;45732;52.850;6.896;2023-11-18T03:05:25;36.50;;;24.35;;
59854;SDS011;45732;52.850;6.896;2023-11-18T03:07:51;34.05;;;23.65;;
59854;SDS011;45732;52.850;6.896;2023-11-18T03:10:20;35.05;;;23.52;;
59854;SDS011;45732;52.850;6.896;2023-11-18T03:12:49;28.90;;;20.90;;
59854;SDS011;45732;52.850;6.896;2023-11-18T03:15:16;28.38;;;20.88;;
59854;SDS011;45732;52.850;6.896;2023-11-18T03:17:45;54.42;;;21.52;;
59854;SDS011;45732;52.850;6.896;2023-11-18T03:20:13;37.08;;;21.05;;
59854;SDS011;45732;52.850;6.896;2023-11-18T03:22:44;50.47;;;20.70;;
59854;SDS011;45732;52.850;6.896;2023-11-18T03:25:13;33.10;;;20.08;;
59854;SDS011;45732;52.850;6.896;2023-11-18T03:27:39;31.15;;;21.35;;
59854;SDS011;45732;52.850;6.896;2023-11-18T03:30:05;31.95;;;23.38;;
59854;SDS011;45732;52.850;6.896;2023-11-18T03:32:33;29.60;;;21.75;;
59854;SDS011;45732;52.850;6.896;2023-11-18T03:35:00;31.35;;;22.77;;
59854;SDS011;45732;52.850;6.896;2023-11-18T03:37:27;29.50;;;22.33;;
59854;SDS011;45732;52.850;6.896;2023-11-18T03:39:53;29.77;;;20.67;;
59854;SDS011;45732;52.850;6.896;2023-11-18T03:42:18;29.58;;;22.05;;
59854;SDS011;45732;52.850;6.896;2023-11-18T03:44:44;34.92;;;24.38;;
59854;SDS011;45732;52.850;6.896;2023-11-18T03:47:13;39.50;;;25.85;;
59854;SDS011;45732;52.850;6.896;2023-11-18T03:49:39;38.28;;;25.70;;
59854;SDS011;45732;52.850;6.896;2023-11-18T03:52:08;32.97;;;23.98;;
59854;SDS011;45732;52.850;6.896;2023-11-18T03:54:34;30.83;;;21.85;;
59854;SDS011;45732;52.850;6.896;2023-11-18T03:57:00;42.13;;;25.15;;
59854;SDS011;45732;52.850;6.896;2023-11-18T03:59:25;47.78;;;26.90;;
59854;SDS011;45732;52.850;6.896;2023-11-18T04:01:51;42.72;;;27.88;;
59854;SDS011;45732;52.850;6.896;2023-11-18T04:04:17;44.83;;;28.77;;
59854;SDS011;45732;52.850;6.896;2023-11-18T04:06:43;60.10;;;31.60;;
59854;SDS011;45732;52.850;6.896;2023-11-18T04:09:09;44.17;;;27.75;;
59854;SDS011;45732;52.850;6.896;2023-11-18T04:11:35;54.10;;;28.95;;
59854;SDS011;45732;52.850;6.896;2023-11-18T04:14:01;44.67;;;25.90;;
59854;SDS011;45732;52.850;6.896;2023-11-18T04:16:28;40.67;;;24.55;;
59854;SDS011;45732;52.850;6.896;2023-11-18T04:18:54;37.05;;;24.13;;
59854;SDS011;45732;52.850;6.896;2023-11-18T04:21:20;58.72;;;24.02;;
59854;SDS011;45732;52.850;6.896;2023-11-18T04:23:47;63.92;;;23.35;;
59854;SDS011;45732;52.850;6.896;2023-11-18T04:26:13;48.40;;;23.17;;
59854;SDS011;45732;52.850;6.896;2023-11-18T04:28:39;50.38;;;25.70;;
59854;SDS011;45732;52.850;6.896;2023-11-18T04:31:05;66.78;;;26.42;;
59854;SDS011;45732;52.850;6.896;2023-11-18T04:33:31;61.90;;;25.98;;
59854;SDS011;45732;52.850;6.896;2023-11-18T04:35:57;52.42;;;24.40;;
59854;SDS011;45732;52.850;6.896;2023-11-18T04:38:22;69.82;;;24.02;;
59854;SDS011;45732;52.850;6.896;2023-11-18T04:40:49;61.20;;;25.05;;
59854;SDS011;45732;52.850;6.896;2023-11-18T04:43:15;56.08;;;25.42;;
59854;SDS011;45732;52.850;6.896;2023-11-18T04:45:43;67.38;;;25.23;;
59854;SDS011;45732;52.850;6.896;2023-11-18T04:48:09;39.95;;;24.80;;
59854;SDS011;45732;52.850;6.896;2023-11-18T04:50:35;60.85;;;25.95;;
59854;SDS011;45732;52.850;6.896;2023-11-18T04:53:01;49.00;;;26.73;;
59854;SDS011;45732;52.850;6.896;2023-11-18T04:55:28;44.65;;;26.52;;
59854;SDS011;45732;52.850;6.896;2023-11-18T04:57:54;39.38;;;27.08;;
59854;SDS011;45732;52.850;6.896;2023-11-18T05:00:20;42.95;;;27.10;;
59854;SDS011;45732;52.850;6.896;2023-11-18T05:02:46;42.88;;;27.15;;
59854;SDS011;45732;52.850;6.896;2023-11-18T05:05:16;41.90;;;27.38;;
59854;SDS011;45732;52.850;6.896;2023-11-18T05:07:42;45.78;;;28.27;;
59854;SDS011;45732;52.850;6.896;2023-11-18T05:10:08;40.45;;;26.15;;
59854;SDS011;45732;52.850;6.896;2023-11-18T05:12:38;43.38;;;26.55;;
59854;SDS011;45732;52.850;6.896;2023-11-18T05:15:04;41.25;;;26.70;;
59854;SDS011;45732;52.850;6.896;2023-11-18T05:17:38;40.50;;;25.45;;
59854;SDS011;45732;52.850;6.896;2023-11-18T05:20:04;39.38;;;25.85;;
59854;SDS011;45732;52.850;6.896;2023-11-18T05:22:34;37.45;;;25.65;;
59854;SDS011;45732;52.850;6.896;2023-11-18T05:25:01;39.95;;;24.42;;
59854;SDS011;45732;52.850;6.896;2023-11-18T05:27:27;41.05;;;25.80;;
59854;SDS011;45732;52.850;6.896;2023-11-18T05:29:53;41.42;;;26.95;;
59854;SDS011;45732;52.850;6.896;2023-11-18T05:32:26;38.30;;;25.40;;
59854;SDS011;45732;52.850;6.896;2023-11-18T05:34:52;40.72;;;26.15;;
59854;SDS011;45732;52.850;6.896;2023-11-18T05:37:20;42.20;;;26.40;;
59854;SDS011;45732;52.850;6.896;2023-11-18T05:39:46;42.25;;;26.88;;
59854;SDS011;45732;52.850;6.896;2023-11-18T05:42:14;38.97;;;25.80;;
59854;SDS011;45732;52.850;6.896;2023-11-18T05:44:40;42.47;;;25.80;;
59854;SDS011;45732;52.850;6.896;2023-11-18T05:47:08;41.60;;;25.08;;
59854;SDS011;45732;52.850;6.896;2023-11-18T05:49:36;38.17;;;24.50;;
59854;SDS011;45732;52.850;6.896;2023-11-18T05:52:03;39.55;;;26.13;;
59854;SDS011;45732;52.850;6.896;2023-11-18T05:54:29;39.42;;;24.42;;
59854;SDS011;45732;52.850;6.896;2023-11-18T05:56:55;39.45;;;24.77;;
59854;SDS011;45732;52.850;6.896;2023-11-18T05:59:21;34.25;;;23.73;;
59854;SDS011;45732;52.850;6.896;2023-11-18T06:01:47;37.20;;;23.60;;
59854;SDS011;45732;52.850;6.896;2023-11-18T06:04:13;37.58;;;23.88;;
59854;SDS011;45732;52.850;6.896;2023-11-18T06:06:38;36.20;;;24.25;;
59854;SDS011;45732;52.850;6.896;2023-11-18T06:09:04;34.80;;;23.27;;
59854;SDS011;45732;52.850;6.896;2023-11-18T06:11:34;37.72;;;23.73;;
59854;SDS011;45732;52.850;6.896;2023-11-18T06:14:00;40.55;;;24.50;;
59854;SDS011;45732;52.850;6.896;2023-11-18T06:16:26;53.78;;;43.55;;
59854;SDS011;45732;52.850;6.896;2023-11-18T06:18:52;40.30;;;25.20;;
59854;SDS011;45732;52.850;6.896;2023-11-18T06:21:23;39.10;;;23.50;;
59854;SDS011;45732;52.850;6.896;2023-11-18T06:23:50;41.72;;;25.52;;
59854;SDS011;45732;52.850;6.896;2023-11-18T06:26:16;41.42;;;26.13;;
59854;SDS011;45732;52.850;6.896;2023-11-18T06:28:45;36.65;;;23.60;;
59854;SDS011;45732;52.850;6.896;2023-11-18T06:31:12;39.78;;;24.27;;
59854;SDS011;45732;52.850;6.896;2023-11-18T06:33:39;42.00;;;26.60;;
59854;SDS011;45732;52.850;6.896;2023-11-18T06:36:09;40.65;;;24.98;;
59854;SDS011;45732;52.850;6.896;2023-11-18T06:38:38;45.53;;;25.63;;
59854;SDS011;45732;52.850;6.896;2023-11-18T06:41:04;41.22;;;25.08;;
59854;SDS011;45732;52.850;6.896;2023-11-18T06:43:34;45.10;;;27.23;;
59854;SDS011;45732;52.850;6.896;2023-11-18T06:48:58;43.45;;;28.00;;
59854;SDS011;45732;52.850;6.896;2023-11-18T06:51:28;48.80;;;30.17;;
59854;SDS011;45732;52.850;6.896;2023-11-18T06:53:55;44.95;;;27.60;;
59854;SDS011;45732;52.850;6.896;2023-11-18T06:56:25;45.92;;;29.05;;
59854;SDS011;45732;52.850;6.896;2023-11-18T06:58:51;41.85;;;27.23;;
59854;SDS011;45732;52.850;6.896;2023-11-18T07:01:18;44.08;;;29.35;;
59854;SDS011;45732;52.850;6.896;2023-11-18T07:03:44;51.45;;;30.00;;
59854;SDS011;45732;52.850;6.896;2023-11-18T07:06:16;49.97;;;29.70;;
59854;SDS011;45732;52.850;6.896;2023-11-18T07:08:47;51.95;;;31.65;;
59854;SDS011;45732;52.850;6.896;2023-11-18T07:11:14;57.00;;;32.80;;
59854;SDS011;45732;52.850;6.896;2023-11-18T07:13:43;52.53;;;30.92;;
59854;SDS011;45732;52.850;6.896;2023-11-18T07:16:10;53.65;;;31.98;;
59854;SDS011;45732;52.850;6.896;2023-11-18T07:18:36;58.58;;;32.22;;
59854;SDS011;45732;52.850;6.896;2023-11-18T07:21:03;64.78;;;40.50;;
59854;SDS011;45732;52.850;6.896;2023-11-18T07:23:30;58.20;;;33.63;;
59854;SDS011;45732;52.850;6.896;2023-11-18T07:25:56;64.53;;;34.22;;
59854;SDS011;45732;52.850;6.896;2023-11-18T07:28:23;65.28;;;34.67;;
59854;SDS011;45732;52.850;6.896;2023-11-18T07:30:49;57.92;;;32.40;;
59854;SDS011;45732;52.850;6.896;2023-11-18T07:33:15;60.92;;;34.25;;
59854;SDS011;45732;52.850;6.896;2023-11-18T07:35:45;60.92;;;34.25;;
59854;SDS011;45732;52.850;6.896;2023-11-18T07:38:12;60.85;;;33.40;;
59854;SDS011;45732;52.850;6.896;2023-11-18T07:40:38;64.57;;;35.72;;
59854;SDS011;45732;52.850;6.896;2023-11-18T07:43:07;70.90;;;42.15;;
59854;SDS011;45732;52.850;6.896;2023-11-18T07:45:34;63.22;;;39.55;;
59854;SDS011;45732;52.850;6.896;2023-11-18T07:48:04;64.47;;;37.45;;
59854;SDS011;45732;52.850;6.896;2023-11-18T07:50:42;68.68;;;40.10;;
59854;SDS011;45732;52.850;6.896;2023-11-18T07:53:12;77.78;;;42.22;;
59854;SDS011;45732;52.850;6.896;2023-11-18T07:55:38;60.45;;;35.72;;
59854;SDS011;45732;52.850;6.896;2023-11-18T07:58:07;64.40;;;38.72;;
59854;SDS011;45732;52.850;6.896;2023-11-18T08:00:39;64.38;;;36.92;;
59854;SDS011;45732;52.850;6.896;2023-11-18T08:03:06;61.13;;;33.55;;
59854;SDS011;45732;52.850;6.896;2023-11-18T08:05:36;60.63;;;32.72;;
59854;SDS011;45732;52.850;6.896;2023-11-18T08:08:12;67.43;;;34.33;;
59854;SDS011;45732;52.850;6.896;2023-11-18T08:10:38;65.78;;;39.17;;
59854;SDS011;45732;52.850;6.896;2023-11-18T08:13:05;67.97;;;34.08;;
59854;SDS011;45732;52.850;6.896;2023-11-18T08:15:34;63.83;;;38.83;;
59854;SDS011;45732;52.850;6.896;2023-11-18T08:18:03;55.60;;;31.77;;
59854;SDS011;45732;52.850;6.896;2023-11-18T08:20:29;55.90;;;34.67;;
59854;SDS011;45732;52.850;6.896;2023-11-18T08:22:55;67.28;;;46.88;;
59854;SDS011;45732;52.850;6.896;2023-11-18T08:25:21;57.15;;;41.50;;
59854;SDS011;45732;52.850;6.896;2023-11-18T08:27:47;56.35;;;36.53;;
59854;SDS011;45732;52.850;6.896;2023-11-18T08:30:13;81.60;;;70.22;;
59854;SDS011;45732;52.850;6.896;2023-11-18T08:32:40;77.55;;;69.20;;
59854;SDS011;45732;52.850;6.896;2023-11-18T08:35:09;51.33;;;33.35;;
59854;SDS011;45732;52.850;6.896;2023-11-18T08:37:37;50.88;;;31.58;;
59854;SDS011;45732;52.850;6.896;2023-11-18T08:40:06;49.90;;;33.47;;
59854;SDS011;45732;52.850;6.896;2023-11-18T08:42:41;49.47;;;32.03;;
59854;SDS011;45732;52.850;6.896;2023-11-18T08:45:12;49.17;;;31.00;;
59854;SDS011;45732;52.850;6.896;2023-11-18T08:47:42;53.67;;;38.28;;
59854;SDS011;45732;52.850;6.896;2023-11-18T08:50:08;49.72;;;34.58;;
59854;SDS011;45732;52.850;6.896;2023-11-18T08:52:37;47.85;;;31.35;;
59854;SDS011;45732;52.850;6.896;2023-11-18T08:55:08;54.88;;;37.75;;
59854;SDS011;45732;52.850;6.896;2023-11-18T08:57:43;42.80;;;29.58;;
59854;SDS011;45732;52.850;6.896;2023-11-18T09:00:27;50.90;;;36.03;;
59854;SDS011;45732;52.850;6.896;2023-11-18T09:03:13;48.33;;;30.80;;
59854;SDS011;45732;52.850;6.896;2023-11-18T09:05:45;53.10;;;33.92;;
59854;SDS011;45732;52.850;6.896;2023-11-18T09:10:55;46.97;;;31.23;;
59854;SDS011;45732;52.850;6.896;2023-11-18T09:13:22;47.80;;;31.92;;
59854;SDS011;45732;52.850;6.896;2023-11-18T09:16:16;47.38;;;31.58;;
59854;SDS011;45732;52.850;6.896;2023-11-18T09:18:41;52.95;;;31.48;;
59854;SDS011;45732;52.850;6.896;2023-11-18T09:21:10;49.95;;;34.40;;
59854;SDS011;45732;52.850;6.896;2023-11-18T09:23:39;47.67;;;33.97;;
59854;SDS011;45732;52.850;6.896;2023-11-18T09:26:06;62.65;;;46.95;;
59854;SDS011;45732;52.850;6.896;2023-11-18T09:28:33;53.17;;;32.70;;
59854;SDS011;45732;52.850;6.896;2023-11-18T09:31:02;47.00;;;31.48;;
59854;SDS011;45732;52.850;6.896;2023-11-18T09:33:36;51.75;;;33.60;;
59854;SDS011;45732;52.850;6.896;2023-11-18T09:36:05;56.45;;;43.47;;
59854;SDS011;45732;52.850;6.896;2023-11-18T09:38:33;49.85;;;33.28;;
59854;SDS011;45732;52.850;6.896;2023-11-18T09:41:01;48.53;;;31.45;;
59854;SDS011;45732;52.850;6.896;2023-11-18T09:43:29;44.47;;;32.25;;
59854;SDS011;45732;52.850;6.896;2023-11-18T09:46:03;58.08;;;43.03;;
59854;SDS011;45732;52.850;6.896;2023-11-18T09:48:42;51.50;;;37.78;;
59854;SDS011;45732;52.850;6.896;2023-11-18T09:51:20;46.70;;;32.47;;
59854;SDS011;45732;52.850;6.896;2023-11-18T09:53:52;47.60;;;30.42;;
59854;SDS011;45732;52.850;6.896;2023-11-18T09:56:30;45.20;;;29.65;;
59854;SDS011;45732;52.850;6.896;2023-11-18T09:59:18;44.13;;;28.77;;
59854;SDS011;45732;52.850;6.896;2023-11-18T10:01:59;46.10;;;29.67;;
59854;SDS011;45732;52.850;6.896;2023-11-18T10:04:27;54.47;;;45.33;;
59854;SDS011;45732;52.850;6.896;2023-11-18T10:06:54;43.28;;;29.35;;
59854;SDS011;45732;52.850;6.896;2023-11-18T10:09:21;42.03;;;28.42;;
59854;SDS011;45732;52.850;6.896;2023-11-18T10:12:02;41.33;;;28.45;;
59854;SDS011;45732;52.850;6.896;2023-11-18T10:14:30;38.88;;;26.63;;
59854;SDS011;45732;52.850;6.896;2023-11-18T10:16:57;42.88;;;28.83;;
59854;SDS011;45732;52.850;6.896;2023-11-18T10:19:23;39.95;;;27.30;;
59854;SDS011;45732;52.850;6.896;2023-11-18T10:21:51;38.92;;;26.60;;
59854;SDS011;45732;52.850;6.896;2023-11-18T10:24:16;40.97;;;29.63;;
59854;SDS011;45732;52.850;6.896;2023-11-18T10:26:46;39.22;;;29.17;;
59854;SDS011;45732;52.850;6.896;2023-11-18T10:29:25;38.45;;;25.58;;
59854;SDS011;45732;52.850;6.896;2023-11-18T10:32:06;38.95;;;27.40;;
59854;SDS011;45732;52.850;6.896;2023-11-18T10:34:34;39.63;;;32.15;;
59854;SDS011;45732;52.850;6.896;2023-11-18T10:37:03;38.17;;;26.65;;
59854;SDS011;45732;52.850;6.896;2023-11-18T10:39:31;36.15;;;25.30;;
59854;SDS011;45732;52.850;6.896;2023-11-18T10:42:00;40.58;;;34.97;;
59854;SDS011;45732;52.850;6.896;2023-11-18T10:44:27;37.08;;;25.75;;
59854;SDS011;45732;52.850;6.896;2023-11-18T10:46:54;40.60;;;29.63;;
59854;SDS011;45732;52.850;6.896;2023-11-18T10:49:23;43.90;;;36.03;;
59854;SDS011;45732;52.850;6.896;2023-11-18T10:51:50;37.05;;;26.10;;
59854;SDS011;45732;52.850;6.896;2023-11-18T10:54:16;40.10;;;30.33;;
59854;SDS011;45732;52.850;6.896;2023-11-18T10:56:51;31.25;;;21.50;;
59854;SDS011;45732;52.850;6.896;2023-11-18T10:59:21;35.83;;;24.60;;
59854;SDS011;45732;52.850;6.896;2023-11-18T11:01:48;35.03;;;22.67;;
59854;SDS011;45732;52.850;6.896;2023-11-18T11:04:14;36.97;;;27.08;;
59854;SDS011;45732;52.850;6.896;2023-11-18T11:06:49;32.13;;;22.63;;
59854;SDS011;45732;52.850;6.896;2023-11-18T11:09:21;34.55;;;30.73;;
59854;SDS011;45732;52.850;6.896;2023-11-18T11:12:01;35.63;;;28.53;;
59854;SDS011;45732;52.850;6.896;2023-11-18T11:14:42;38.28;;;31.95;;
59854;SDS011;45732;52.850;6.896;2023-11-18T11:17:19;30.33;;;22.35;;
59854;SDS011;45732;52.850;6.896;2023-11-18T11:22:46;27.30;;;19.92;;
59854;SDS011;45732;52.850;6.896;2023-11-18T11:25:24;32.55;;;22.10;;
59854;SDS011;45732;52.850;6.896;2023-11-18T11:28:03;30.05;;;21.77;;
59854;SDS011;45732;52.850;6.896;2023-11-18T11:30:45;32.60;;;24.55;;
59854;SDS011;45732;52.850;6.896;2023-11-18T11:35:45;31.15;;;23.55;;
59854;SDS011;45732;52.850;6.896;2023-11-18T11:38:22;27.42;;;19.00;;
59854;SDS011;45732;52.850;6.896;2023-11-18T11:40:49;35.05;;;29.20;;
59854;SDS011;45732;52.850;6.896;2023-11-18T11:43:18;29.27;;;21.20;;
59854;SDS011;45732;52.850;6.896;2023-11-18T11:45:48;28.25;;;22.35;;
59854;SDS011;45732;52.850;6.896;2023-11-18T11:48:16;28.55;;;20.48;;
59854;SDS011;45732;52.850;6.896;2023-11-18T11:53:30;23.77;;;18.17;;
59854;SDS011;45732;52.850;6.896;2023-11-18T11:56:04;30.17;;;22.45;;
59854;SDS011;45732;52.850;6.896;2023-11-18T11:58:35;29.73;;;22.17;;
59854;SDS011;45732;52.850;6.896;2023-11-18T12:01:16;28.63;;;20.73;;
59854;SDS011;45732;52.850;6.896;2023-11-18T12:03:54;27.58;;;18.63;;
59854;SDS011;45732;52.850;6.896;2023-11-18T12:06:22;26.38;;;18.95;;
59854;SDS011;45732;52.850;6.896;2023-11-18T12:08:52;27.08;;;19.77;;
59854;SDS011;45732;52.850;6.896;2023-11-18T12:11:18;28.13;;;20.98;;
59854;SDS011;45732;52.850;6.896;2023-11-18T12:14:00;28.27;;;20.55;;
59854;SDS011;45732;52.850;6.896;2023-11-18T12:19:32;28.88;;;18.30;;
59854;SDS011;45732;52.850;6.896;2023-11-18T12:22:22;25.70;;;17.92;;
59854;SDS011;45732;52.850;6.896;2023-11-18T12:27:40;27.25;;;19.92;;
59854;SDS011;45732;52.850;6.896;2023-11-18T12:41:41;29.13;;;17.70;;
59854;SDS011;45732;52.850;6.896;2023-11-18T12:47:04;25.80;;;17.15;;
59854;SDS011;45732;52.850;6.896;2023-11-18T12:49:42;26.30;;;17.63;;
59854;SDS011;45732;52.850;6.896;2023-11-18T12:52:10;24.80;;;17.48;;
59854;SDS011;45732;52.850;6.896;2023-11-18T12:54:39;24.63;;;16.20;;
59854;SDS011;45732;52.850;6.896;2023-11-18T12:57:11;24.45;;;16.33;;
59854;SDS011;45732;52.850;6.896;2023-11-18T12:59:40;25.17;;;16.50;;
59854;SDS011;45732;52.850;6.896;2023-11-18T13:02:07;26.83;;;16.77;;
59854;SDS011;45732;52.850;6.896;2023-11-18T13:04:38;26.10;;;16.70;;
59854;SDS011;45732;52.850;6.896;2023-11-18T13:07:05;25.27;;;16.63;;
59854;SDS011;45732;52.850;6.896;2023-11-18T13:09:34;24.63;;;16.50;;
59854;SDS011;45732;52.850;6.896;2023-11-18T13:12:02;26.00;;;16.73;;
59854;SDS011;45732;52.850;6.896;2023-11-18T13:14:34;22.90;;;15.98;;
59854;SDS011;45732;52.850;6.896;2023-11-18T13:17:13;23.40;;;15.90;;
59854;SDS011;45732;52.850;6.896;2023-11-18T13:19:43;22.00;;;14.95;;
59854;SDS011;45732;52.850;6.896;2023-11-18T13:22:10;23.95;;;15.95;;
59854;SDS011;45732;52.850;6.896;2023-11-18T13:24:38;22.13;;;15.25;;
59854;SDS011;45732;52.850;6.896;2023-11-18T13:27:05;28.05;;;20.38;;
59854;SDS011;45732;52.850;6.896;2023-11-18T13:29:35;40.03;;;35.80;;
59854;SDS011;45732;52.850;6.896;2023-11-18T13:32:02;30.83;;;25.15;;
59854;SDS011;45732;52.850;6.896;2023-11-18T13:34:32;27.00;;;17.88;;
59854;SDS011;45732;52.850;6.896;2023-11-18T13:37:05;25.92;;;20.15;;
59854;SDS011;45732;52.850;6.896;2023-11-18T13:39:32;27.67;;;21.17;;
59854;SDS011;45732;52.850;6.896;2023-11-18T13:42:02;26.73;;;19.30;;
59854;SDS011;45732;52.850;6.896;2023-11-18T13:44:44;30.88;;;19.80;;
59854;SDS011;45732;52.850;6.896;2023-11-18T13:47:11;31.90;;;26.90;;
59854;SDS011;45732;52.850;6.896;2023-11-18T13:49:37;27.00;;;19.05;;
59854;SDS011;45732;52.850;6.896;2023-11-18T13:52:06;31.30;;;26.30;;
59854;SDS011;45732;52.850;6.896;2023-11-18T13:54:36;29.70;;;25.23;;
59854;SDS011;45732;52.850;6.896;2023-11-18T13:57:05;29.38;;;26.08;;
59854;SDS011;45732;52.850;6.896;2023-11-18T13:59:31;28.35;;;24.55;;
59854;SDS011;45732;52.850;6.896;2023-11-18T14:01:58;26.05;;;19.67;;
59854;SDS011;45732;52.850;6.896;2023-11-18T14:04:31;24.00;;;18.63;;
59854;SDS011;45732;52.850;6.896;2023-11-18T14:07:02;27.73;;;21.70;;
59854;SDS011;45732;52.850;6.896;2023-11-18T14:09:34;25.88;;;16.80;;
59854;SDS011;45732;52.850;6.896;2023-11-18T14:12:09;22.20;;;17.42;;
59854;SDS011;45732;52.850;6.896;2023-11-18T14:14:36;27.02;;;22.67;;
59854;SDS011;45732;52.850;6.896;2023-11-18T14:17:03;29.33;;;23.55;;
59854;SDS011;45732;52.850;6.896;2023-11-18T14:19:31;25.73;;;22.33;;
59854;SDS011;45732;52.850;6.896;2023-11-18T14:21:57;26.85;;;23.25;;
59854;SDS011;45732;52.850;6.896;2023-11-18T14:24:23;25.17;;;15.98;;
59854;SDS011;45732;52.850;6.896;2023-11-18T14:26:53;25.17;;;19.15;;
59854;SDS011;45732;52.850;6.896;2023-11-18T14:29:19;23.38;;;17.55;;
59854;SDS011;45732;52.850;6.896;2023-11-18T14:31:45;28.73;;;24.95;;
59854;SDS011;45732;52.850;6.896;2023-11-18T14:34:11;29.92;;;23.52;;
59854;SDS011;45732;52.850;6.896;2023-11-18T14:36:36;34.90;;;31.30;;
59854;SDS011;45732;52.850;6.896;2023-11-18T14:39:03;24.90;;;20.65;;
59854;SDS011;45732;52.850;6.896;2023-11-18T14:41:32;19.08;;;14.45;;
59854;SDS011;45732;52.850;6.896;2023-11-18T14:43:58;21.55;;;15.07;;
59854;SDS011;45732;52.850;6.896;2023-11-18T14:46:25;24.02;;;15.20;;
59854;SDS011;45732;52.850;6.896;2023-11-18T14:48:52;23.17;;;16.05;;
59854;SDS011;45732;52.850;6.896;2023-11-18T14:51:18;24.58;;;16.15;;
59854;SDS011;45732;52.850;6.896;2023-11-18T14:53:43;23.15;;;14.85;;
59854;SDS011;45732;52.850;6.896;2023-11-18T14:56:09;22.25;;;14.50;;
59854;SDS011;45732;52.850;6.896;2023-11-18T14:58:35;19.40;;;13.85;;
59854;SDS011;45732;52.850;6.896;2023-11-18T15:01:01;22.33;;;14.07;;
59854;SDS011;45732;52.850;6.896;2023-11-18T15:03:27;18.55;;;14.35;;